New York Harbor Entrance NM SE of Breezy Point NY (44065)

Conditions for Tuesday

Daily
Weekly
Monthly
Marine Data Graph

Current Weather/Wave Observations

Air Temperature: 75° F
Humidity: 81
Wind direction (W Dir): SSW (205 - 214 Degrees)
Wind Speed (W Spd): 3.9 kts (4.5 mph)
Wind Gust (W Spd): 3.9 kts (4.5 mph)
Atmospheric Pressure (AP): 30.08 in

Updated: 11:20 AM EDT on July 16, 2019

Marine & Boating Location Search

Enter a coastal zip code for marine weather.

Current Wave Detail Observations

Water Depth: 82 ft
Wave Height: 1.38 ft
Spectral Peak Period: 6.7 sec
Average Wave Period: 4.3 sec
Sampling Interval: 0.6 sec
Wave Record: 2400 sec

Updated: 11:00 AM EDT on July 16, 2019

General Information

Location: 40.369 North -73.703 West
Buoy Type: 3-meter discus buoy
Buoy Hull: 3D63
Payload: ARES payload
Owned by: NDBC
Windspeed: Measured by obtained from anemometer
Sea Surface: Measured by Intake
Note: Right whales are active off NY from November to April.  Speed restrictions of 10 knots apply to vessels 65 feet or greater within the vicinity of this station between November 1 and April 30.  To learn more about right whales and rules protecting them, go to: http://www.nmfs.noaa.gov/pr/shipstrike

Weather and Wave Data

Time Temp Humidity Wind Dominant Wave Wind Wave Wave Swell Pressure
  Air
(°F)
Water
(°F)
  Dir Speed
(kts)
Speed
(mph)
Period
(sec)
Height
(ft)
Range
(ft)
Period
(sec)
Height
(ft)
Range
(ft)
Period
(sec)
Height
(ft)
Range
(ft)
Atmo.
(in)
Tend.
(in)
20:00 76 76 69 SSW 15.6 17.9 - - - - - - 30.01 -
20:30 76
-
70 SSW 15.6 17.9 - - - - - - 30.01 -
20:40 76 76 70 SSW 13.6 15.7 - - - - - - 30.01 -
20:50 76 76 71 SSW 15.6 17.9 3 2.30 exactly 2.3 3 1.64 0.82 - 2.46 8 1.64 0.82 - 2.46 30.01 -
21:00 76 76 73 SSW 15.6 17.9 - - - - - - 30.01 +0.01
21:40 76 74 76 SSW 15.6 17.9 - - - - - - 30.03 -
21:50 76 74 77 SSW 13.6 15.7 3 2.30 exactly 2.3 3 1.64 0.82 - 2.46 7 1.64 0.82 - 2.46 30.03 -
22:10 76 74 77 SSW 13.6 15.7 - - - - - - 30.03 -
22:20 76 73 78 SSW 13.6 15.7 - - - - - - 30.03 -
22:30 76 73 78 SSW 13.6 15.7 - - - - - - 30.04 -
22:40 76 73 78 SW 13.6 15.7 - - - - - - 30.04 -
23:20 76 74 80 SW 13.6 15.7 - - - - - - 30.04 -
23:30 75 73 84 SW 13.6 15.7 - - - - - - 30.04 -
23:40 75 73 84 SW 13.6 15.7 - - - - - - 30.04 -
00:10 75 72 86 SW 11.7 13.4 - - - - - - 30.05 -
00:20 75 72 87 SW 11.7 13.4 - - - - - - 30.05 -
00:30 75 72 87 SW 11.7 13.4 - - - - - - 30.05 -
00:40 75 72 87 SW 9.7 11.2 - - - - - - 30.05 -
00:50 75 72 88 SW 9.7 11.2 3 2.30 exactly 2.3 3 1.64 0.82 - 2.46 8 1.64 0.82 - 2.46 30.05 -
01:10 74 72 93 SW 7.8 8.9 - - - - - - 30.04 -
01:20 74 72 92 SW 7.8 8.9 - - - - - - 30.05 -
01:30 74 73 90 SW 7.8 8.9 - - - - - - 30.04 -
01:50 74 73 86 WSW 7.8 8.9 4 1.97 exactly 2.0 4 1.64 0.82 - 2.46 7 1.64 0.82 - 2.46 30.05 -
02:10 74 73 84 WSW 7.8 8.9 - - - - - - 30.05 -
02:20 74 72 83 WSW 7.8 8.9 - - - - - - 30.05 -
02:40 73 73 87 West 5.8 6.7 - - - - - - 30.04 -
02:50 73 73 85 West 5.8 6.7 3 1.64 exactly 1.6 3 1.64 0.82 - 2.46 9 1.64 0.82 - 2.46 30.04 -
03:10 73 73 84 West 5.8 6.7 - - - - - - 30.04 -
03:20 73 73 84 West 5.8 6.7 - - - - - - 30.04 -
03:30 73 73 84 West 5.8 6.7 - - - - - - 30.04 -
03:40 73 72 81 West 5.8 6.7 - - - - - - 30.04 -
04:10 73 73 82 WNW 3.9 4.5 - - - - - - 30.04 -
04:30 73 73 84 WNW 5.8 6.7 - - - - - - 30.04 -
04:40 73 73 84 West 5.8 6.7 - - - - - - 30.04 -
04:50 73 73 84 WNW 5.8 6.7 8 1.31 exactly 1.3 3 1.64 0.82 - 2.46 8 1.64 0.82 - 2.46 30.04 -
05:10 73 72 84 WNW 5.8 6.7 - - - - - - 30.04 -
05:30 73 72 85 WNW 5.8 6.7 - - - - - - 30.04 -
05:40 73 72 84 West 5.8 6.7 - - - - - - 30.05 -
05:50 73 72 84 West 3.9 4.5 8 1.31 exactly 1.3 - - - 8 1.64 0.82 - 2.46 30.05 -
06:10 73 72 84 WNW 3.9 4.5 - - - - - - 30.05 -
06:20 73 72 84 WNW 3.9 4.5 - - - - - - 30.06 -
06:30 73 72 84 WNW 3.9 4.5 - - - - - - 30.06 -
07:20 73 72 83 West 3.9 4.5 - - - - - - 30.08 -
07:30 73 72 82 West 3.9 4.5 - - - - - - 30.08 -
07:40 73 72 81 West 3.9 4.5 - - - - - - 30.08 -
07:50 73 72 80 West 3.9 4.5 10 1.31 exactly 1.3 - - - 10 1.64 0.82 - 2.46 30.08 -
08:10 73 72 82 West 3.9 4.5 - - - - - - 30.08 -
08:20 73 72 81 West 5.8 6.7 - - - - - - 30.08 -
08:30 73 72 80 West 5.8 6.7 - - - - - - 30.08 -
08:40 73 72 81 West 3.9 4.5 - - - - - - 30.09 -
08:50 73 72 81 WNW 5.8 6.7 8 1.31 exactly 1.3 3 1.64 0.82 - 2.46 8 1.64 0.82 - 2.46 30.09 -
09:10 73 71 82 WNW 3.9 4.5 - - - - - - 30.09 -
09:20 73 71 82 WNW 1.9 2.2 - - - - - - 30.09 -
09:30 73 71 84 West 1.9 2.2 - - - - - - 30.08 -
10:00 74 71 79 WSW 1.9 2.2 - - - - - - 30.08 +0.01
10:10 74 71 78 SW 1.9 2.2 - - - - - - 30.08 -
10:20 74 71 76 SW 3.9 4.5 - - - - - - 30.08 -
10:40 74 72 80 SW 3.9 4.5 - - - - - - 30.08 -
11:10 75 72 80 SSW 3.9 4.5 - - - - - - 30.08 -
11:20 75 72 81 SSW 3.9 4.5 - - - - - - 30.08 -

Detailed Wave Spectra

Time Water Depth Wave Height Spectral Peak Period Average Wave Period Sampling Interval Wave Record
22:00 82 ft 2.23 ft 3.3 sec 3.5 sec 0.6 sec 2400 sec
23:00 82 ft 2.30 ft 3.4 sec 3.5 sec 0.6 sec 2400 sec
00:00 82 ft 2.36 ft 3.6 sec 3.5 sec 0.6 sec 2400 sec
01:00 82 ft 2.17 ft 3.4 sec 3.6 sec 0.6 sec 2400 sec
02:00 82 ft 1.80 ft 3.6 sec 3.6 sec 0.6 sec 2400 sec
03:00 82 ft 1.61 ft 3.4 sec 3.5 sec 0.6 sec 2400 sec
04:00 82 ft 1.54 ft 7.7 sec 3.8 sec 0.6 sec 2400 sec
05:00 82 ft 1.44 ft 7.7 sec 3.8 sec 0.6 sec 2400 sec
06:00 82 ft 1.25 ft 7.7 sec 4.0 sec 0.6 sec 2400 sec
07:00 82 ft 1.41 ft 7.7 sec 4.2 sec 0.6 sec 2400 sec
08:00 82 ft 1.44 ft 10.0 sec 4.5 sec 0.6 sec 2400 sec
09:00 82 ft 1.38 ft 7.7 sec 4.2 sec 0.6 sec 2400 sec
11:00 82 ft 1.38 ft 6.7 sec 4.3 sec 0.6 sec 2400 sec